sensor_id;sensor_type;location;lat;lon;timestamp;P1;durP1;ratioP1;P2;durP2;ratioP2
22070;SDS011;11200;51.488;6.668;2023-07-20T14:03:20;0.93;;;0.80;;
22070;SDS011;11200;51.488;6.668;2023-07-20T14:05:46;0.93;;;0.70;;
22070;SDS011;11200;51.488;6.668;2023-07-20T14:08:14;0.90;;;0.70;;
22070;SDS011;11200;51.488;6.668;2023-07-20T14:10:39;0.82;;;0.70;;
22070;SDS011;11200;51.488;6.668;2023-07-20T14:13:05;0.80;;;0.70;;
22070;SDS011;11200;51.488;6.668;2023-07-20T14:15:30;0.88;;;0.80;;
22070;SDS011;11200;51.488;6.668;2023-07-20T14:17:56;0.70;;;0.70;;
22070;SDS011;11200;51.488;6.668;2023-07-20T14:20:22;0.50;;;0.50;;
22070;SDS011;11200;51.488;6.668;2023-07-20T14:22:47;0.93;;;0.80;;
22070;SDS011;11200;51.488;6.668;2023-07-20T14:25:13;1.00;;;0.70;;
22070;SDS011;11200;51.488;6.668;2023-07-20T14:27:39;0.70;;;0.70;;
22070;SDS011;11200;51.488;6.668;2023-07-20T14:30:04;1.55;;;0.70;;
22070;SDS011;11200;51.488;6.668;2023-07-20T14:32:30;0.90;;;0.70;;
22070;SDS011;11200;51.488;6.668;2023-07-20T14:34:57;0.70;;;0.70;;
22070;SDS011;11200;51.488;6.668;2023-07-20T14:37:23;0.60;;;0.60;;
22070;SDS011;11200;51.488;6.668;2023-07-20T14:39:49;1.10;;;0.70;;
22070;SDS011;11200;51.488;6.668;2023-07-20T14:42:17;1.08;;;0.82;;
22070;SDS011;11200;51.488;6.668;2023-07-20T14:44:46;0.60;;;0.60;;
22070;SDS011;11200;51.488;6.668;2023-07-20T14:47:12;0.60;;;0.60;;
22070;SDS011;11200;51.488;6.668;2023-07-20T14:49:38;0.60;;;0.60;;
22070;SDS011;11200;51.488;6.668;2023-07-20T14:52:06;0.60;;;0.60;;
22070;SDS011;11200;51.488;6.668;2023-07-20T14:54:32;0.70;;;0.70;;
22070;SDS011;11200;51.488;6.668;2023-07-20T14:56:57;0.93;;;0.80;;
22070;SDS011;11200;51.488;6.668;2023-07-20T14:59:23;0.63;;;0.63;;
22070;SDS011;11200;51.488;6.668;2023-07-20T15:01:49;1.15;;;0.70;;
22070;SDS011;11200;51.488;6.668;2023-07-20T15:04:14;0.70;;;0.70;;
22070;SDS011;11200;51.488;6.668;2023-07-20T15:06:40;0.70;;;0.70;;
22070;SDS011;11200;51.488;6.668;2023-07-20T15:09:06;0.95;;;0.80;;
22070;SDS011;11200;51.488;6.668;2023-07-20T15:11:33;0.85;;;0.60;;
22070;SDS011;11200;51.488;6.668;2023-07-20T15:13:59;1.10;;;0.60;;
22070;SDS011;11200;51.488;6.668;2023-07-20T15:16:25;0.70;;;0.70;;
22070;SDS011;11200;51.488;6.668;2023-07-20T15:18:53;0.90;;;0.75;;
22070;SDS011;11200;51.488;6.668;2023-07-20T15:21:18;1.25;;;0.80;;
22070;SDS011;11200;51.488;6.668;2023-07-20T15:23:44;0.70;;;0.70;;
22070;SDS011;11200;51.488;6.668;2023-07-20T15:26:10;0.70;;;0.70;;
22070;SDS011;11200;51.488;6.668;2023-07-20T15:28:37;0.98;;;0.60;;
22070;SDS011;11200;51.488;6.668;2023-07-20T15:31:04;0.90;;;0.70;;
22070;SDS011;11200;51.488;6.668;2023-07-20T15:33:30;0.90;;;0.70;;
22070;SDS011;11200;51.488;6.668;2023-07-20T15:35:56;0.85;;;0.80;;
22070;SDS011;11200;51.488;6.668;2023-07-20T15:38:22;0.80;;;0.75;;
22070;SDS011;11200;51.488;6.668;2023-07-20T15:40:48;0.60;;;0.60;;
22070;SDS011;11200;51.488;6.668;2023-07-20T15:43:16;0.82;;;0.80;;
22070;SDS011;11200;51.488;6.668;2023-07-20T15:45:46;0.70;;;0.60;;
22070;SDS011;11200;51.488;6.668;2023-07-20T15:48:15;0.98;;;0.77;;
22070;SDS011;11200;51.488;6.668;2023-07-20T15:50:41;0.70;;;0.70;;
22070;SDS011;11200;51.488;6.668;2023-07-20T15:53:07;0.70;;;0.70;;
22070;SDS011;11200;51.488;6.668;2023-07-20T15:55:33;0.70;;;0.70;;
22070;SDS011;11200;51.488;6.668;2023-07-20T15:57:59;0.80;;;0.80;;
22070;SDS011;11200;51.488;6.668;2023-07-20T16:00:25;1.05;;;0.80;;
22070;SDS011;11200;51.488;6.668;2023-07-20T16:02:51;0.70;;;0.68;;
22070;SDS011;11200;51.488;6.668;2023-07-20T16:05:16;1.05;;;0.95;;
22070;SDS011;11200;51.488;6.668;2023-07-20T16:07:42;0.60;;;0.60;;
22070;SDS011;11200;51.488;6.668;2023-07-20T16:10:09;0.75;;;0.70;;
22070;SDS011;11200;51.488;6.668;2023-07-20T16:12:35;0.60;;;0.60;;
22070;SDS011;11200;51.488;6.668;2023-07-20T16:15:02;1.13;;;0.80;;
22070;SDS011;11200;51.488;6.668;2023-07-20T16:17:27;0.80;;;0.80;;
22070;SDS011;11200;51.488;6.668;2023-07-20T16:19:53;0.80;;;0.80;;
22070;SDS011;11200;51.488;6.668;2023-07-20T16:22:19;1.00;;;0.90;;
22070;SDS011;11200;51.488;6.668;2023-07-20T16:24:44;0.70;;;0.70;;
22070;SDS011;11200;51.488;6.668;2023-07-20T16:27:10;1.17;;;0.90;;
22070;SDS011;11200;51.488;6.668;2023-07-20T16:29:35;1.00;;;0.88;;
22070;SDS011;11200;51.488;6.668;2023-07-20T16:32:01;0.90;;;0.90;;
22070;SDS011;11200;51.488;6.668;2023-07-20T16:34:27;0.75;;;0.73;;
22070;SDS011;11200;51.488;6.668;2023-07-20T16:36:52;1.02;;;0.80;;
22070;SDS011;11200;51.488;6.668;2023-07-20T16:39:18;0.82;;;0.82;;
22070;SDS011;11200;51.488;6.668;2023-07-20T16:41:44;0.80;;;0.80;;
22070;SDS011;11200;51.488;6.668;2023-07-20T16:44:09;1.02;;;0.80;;
22070;SDS011;11200;51.488;6.668;2023-07-20T16:46:35;1.02;;;0.85;;
22070;SDS011;11200;51.488;6.668;2023-07-20T16:49:01;0.80;;;0.80;;
22070;SDS011;11200;51.488;6.668;2023-07-20T16:51:33;0.80;;;0.80;;
22070;SDS011;11200;51.488;6.668;2023-07-20T16:53:59;0.75;;;0.75;;
22070;SDS011;11200;51.488;6.668;2023-07-20T16:56:25;0.90;;;0.75;;
22070;SDS011;11200;51.488;6.668;2023-07-20T16:58:51;0.80;;;0.80;;
22070;SDS011;11200;51.488;6.668;2023-07-20T17:01:17;0.80;;;0.80;;
22070;SDS011;11200;51.488;6.668;2023-07-20T17:03:46;1.25;;;0.80;;
22070;SDS011;11200;51.488;6.668;2023-07-20T17:06:13;0.75;;;0.75;;
22070;SDS011;11200;51.488;6.668;2023-07-20T17:08:39;0.70;;;0.70;;
22070;SDS011;11200;51.488;6.668;2023-07-20T17:11:05;1.13;;;0.90;;
22070;SDS011;11200;51.488;6.668;2023-07-20T17:13:30;0.82;;;0.82;;
22070;SDS011;11200;51.488;6.668;2023-07-20T17:15:58;0.85;;;0.85;;
22070;SDS011;11200;51.488;6.668;2023-07-20T17:18:24;0.70;;;0.70;;
22070;SDS011;11200;51.488;6.668;2023-07-20T17:20:49;1.27;;;1.02;;
22070;SDS011;11200;51.488;6.668;2023-07-20T17:23:15;0.90;;;0.80;;
22070;SDS011;11200;51.488;6.668;2023-07-20T17:25:45;1.25;;;0.75;;
22070;SDS011;11200;51.488;6.668;2023-07-20T17:28:11;1.00;;;0.82;;
22070;SDS011;11200;51.488;6.668;2023-07-20T17:30:38;0.90;;;0.90;;
22070;SDS011;11200;51.488;6.668;2023-07-20T17:33:03;0.90;;;0.90;;
22070;SDS011;11200;51.488;6.668;2023-07-20T17:35:29;1.67;;;0.85;;
22070;SDS011;11200;51.488;6.668;2023-07-20T17:37:58;0.73;;;0.73;;
22070;SDS011;11200;51.488;6.668;2023-07-20T17:40:23;1.10;;;1.00;;
22070;SDS011;11200;51.488;6.668;2023-07-20T17:42:49;2.38;;;0.90;;
22070;SDS011;11200;51.488;6.668;2023-07-20T17:45:15;0.88;;;0.80;;
22070;SDS011;11200;51.488;6.668;2023-07-20T17:47:41;1.10;;;0.77;;
22070;SDS011;11200;51.488;6.668;2023-07-20T17:50:07;0.80;;;0.80;;
22070;SDS011;11200;51.488;6.668;2023-07-20T17:52:37;0.85;;;0.80;;
22070;SDS011;11200;51.488;6.668;2023-07-20T17:55:04;1.00;;;0.90;;
22070;SDS011;11200;51.488;6.668;2023-07-20T17:57:30;1.20;;;0.82;;
22070;SDS011;11200;51.488;6.668;2023-07-20T17:59:56;1.40;;;1.08;;
22070;SDS011;11200;51.488;6.668;2023-07-20T18:02:22;1.00;;;0.90;;
22070;SDS011;11200;51.488;6.668;2023-07-20T18:04:50;2.15;;;0.90;;
22070;SDS011;11200;51.488;6.668;2023-07-20T18:07:16;0.95;;;0.90;;
22070;SDS011;11200;51.488;6.668;2023-07-20T18:09:42;1.55;;;0.93;;
22070;SDS011;11200;51.488;6.668;2023-07-20T18:12:08;5.30;;;1.45;;
22070;SDS011;11200;51.488;6.668;2023-07-20T18:14:34;3.53;;;1.38;;
22070;SDS011;11200;51.488;6.668;2023-07-20T18:16:59;4.60;;;1.10;;
22070;SDS011;11200;51.488;6.668;2023-07-20T18:19:25;4.82;;;1.42;;
22070;SDS011;11200;51.488;6.668;2023-07-20T18:21:54;4.88;;;1.30;;
22070;SDS011;11200;51.488;6.668;2023-07-20T18:24:20;3.95;;;1.50;;
22070;SDS011;11200;51.488;6.668;2023-07-20T18:26:46;6.43;;;1.45;;
22070;SDS011;11200;51.488;6.668;2023-07-20T18:29:11;3.15;;;1.20;;
22070;SDS011;11200;51.488;6.668;2023-07-20T18:31:37;3.80;;;1.20;;
22070;SDS011;11200;51.488;6.668;2023-07-20T18:34:04;3.63;;;1.58;;
22070;SDS011;11200;51.488;6.668;2023-07-20T18:36:29;2.83;;;1.17;;
22070;SDS011;11200;51.488;6.668;2023-07-20T18:38:55;2.28;;;1.20;;
22070;SDS011;11200;51.488;6.668;2023-07-20T18:41:21;3.20;;;1.40;;
22070;SDS011;11200;51.488;6.668;2023-07-20T18:43:47;3.08;;;1.25;;
22070;SDS011;11200;51.488;6.668;2023-07-20T18:46:13;3.30;;;1.20;;
22070;SDS011;11200;51.488;6.668;2023-07-20T18:48:39;2.35;;;1.20;;
22070;SDS011;11200;51.488;6.668;2023-07-20T18:51:04;4.55;;;1.10;;
22070;SDS011;11200;51.488;6.668;2023-07-20T18:53:32;3.65;;;1.38;;
22070;SDS011;11200;51.488;6.668;2023-07-20T18:55:59;3.10;;;1.10;;
22070;SDS011;11200;51.488;6.668;2023-07-20T18:58:24;1.67;;;1.10;;
22070;SDS011;11200;51.488;6.668;2023-07-20T19:00:50;3.00;;;1.23;;
22070;SDS011;11200;51.488;6.668;2023-07-20T19:03:16;2.45;;;1.20;;
22070;SDS011;11200;51.488;6.668;2023-07-20T19:05:41;1.52;;;1.20;;
22070;SDS011;11200;51.488;6.668;2023-07-20T19:08:09;2.00;;;1.20;;
22070;SDS011;11200;51.488;6.668;2023-07-20T19:10:35;2.60;;;1.13;;
22070;SDS011;11200;51.488;6.668;2023-07-20T19:13:01;2.35;;;1.20;;
22070;SDS011;11200;51.488;6.668;2023-07-20T19:15:26;1.40;;;1.10;;
22070;SDS011;11200;51.488;6.668;2023-07-20T19:17:52;2.33;;;0.90;;
22070;SDS011;11200;51.488;6.668;2023-07-20T19:20:17;1.23;;;1.08;;
22070;SDS011;11200;51.488;6.668;2023-07-20T19:22:43;2.20;;;1.20;;
22070;SDS011;11200;51.488;6.668;2023-07-20T19:25:09;1.33;;;1.02;;
22070;SDS011;11200;51.488;6.668;2023-07-20T19:27:40;1.60;;;1.10;;
22070;SDS011;11200;51.488;6.668;2023-07-20T19:30:07;0.93;;;0.90;;
22070;SDS011;11200;51.488;6.668;2023-07-20T19:32:33;1.65;;;1.00;;
22070;SDS011;11200;51.488;6.668;2023-07-20T19:35:00;1.90;;;1.27;;
22070;SDS011;11200;51.488;6.668;2023-07-20T19:37:26;1.38;;;1.00;;
22070;SDS011;11200;51.488;6.668;2023-07-20T19:39:52;1.50;;;1.25;;
22070;SDS011;11200;51.488;6.668;2023-07-20T19:42:18;1.67;;;1.15;;
22070;SDS011;11200;51.488;6.668;2023-07-20T19:44:44;1.40;;;1.10;;
22070;SDS011;11200;51.488;6.668;2023-07-20T19:47:10;1.85;;;1.10;;
22070;SDS011;11200;51.488;6.668;2023-07-20T19:49:35;1.45;;;0.93;;
22070;SDS011;11200;51.488;6.668;2023-07-20T19:52:01;1.67;;;1.13;;
22070;SDS011;11200;51.488;6.668;2023-07-20T19:54:28;1.33;;;1.00;;
22070;SDS011;11200;51.488;6.668;2023-07-20T19:56:54;1.75;;;0.90;;
22070;SDS011;11200;51.488;6.668;2023-07-20T19:59:20;1.10;;;1.00;;
22070;SDS011;11200;51.488;6.668;2023-07-20T20:01:46;2.25;;;1.20;;
22070;SDS011;11200;51.488;6.668;2023-07-20T20:04:11;1.63;;;1.23;;
22070;SDS011;11200;51.488;6.668;2023-07-20T20:06:37;1.83;;;1.10;;
22070;SDS011;11200;51.488;6.668;2023-07-20T20:09:03;1.42;;;1.05;;
22070;SDS011;11200;51.488;6.668;2023-07-20T20:11:29;1.38;;;1.10;;
22070;SDS011;11200;51.488;6.668;2023-07-20T20:13:55;1.20;;;1.10;;
22070;SDS011;11200;51.488;6.668;2023-07-20T20:16:21;1.20;;;1.10;;
22070;SDS011;11200;51.488;6.668;2023-07-20T20:18:47;2.92;;;1.13;;
22070;SDS011;11200;51.488;6.668;2023-07-20T20:21:12;2.42;;;1.10;;
22070;SDS011;11200;51.488;6.668;2023-07-20T20:23:39;1.05;;;1.00;;
22070;SDS011;11200;51.488;6.668;2023-07-20T20:26:05;1.30;;;1.20;;
22070;SDS011;11200;51.488;6.668;2023-07-20T20:28:33;1.30;;;1.10;;
22070;SDS011;11200;51.488;6.668;2023-07-20T20:30:58;1.15;;;1.05;;
22070;SDS011;11200;51.488;6.668;2023-07-20T20:33:29;1.23;;;1.00;;
22070;SDS011;11200;51.488;6.668;2023-07-20T20:35:55;1.30;;;1.20;;
22070;SDS011;11200;51.488;6.668;2023-07-20T20:38:25;1.30;;;1.20;;
22070;SDS011;11200;51.488;6.668;2023-07-20T20:40:51;1.15;;;1.05;;
22070;SDS011;11200;51.488;6.668;2023-07-20T20:43:17;1.20;;;1.00;;
22070;SDS011;11200;51.488;6.668;2023-07-20T20:45:43;1.20;;;1.10;;
22070;SDS011;11200;51.488;6.668;2023-07-20T20:48:09;1.17;;;1.08;;
22070;SDS011;11200;51.488;6.668;2023-07-20T20:50:35;1.30;;;1.20;;
22070;SDS011;11200;51.488;6.668;2023-07-20T20:53:02;1.15;;;1.02;;
22070;SDS011;11200;51.488;6.668;2023-07-20T20:55:29;1.00;;;1.00;;
22070;SDS011;11200;51.488;6.668;2023-07-20T20:57:55;1.30;;;1.20;;
22070;SDS011;11200;51.488;6.668;2023-07-20T21:00:21;1.08;;;1.00;;
22070;SDS011;11200;51.488;6.668;2023-07-20T21:02:48;1.30;;;1.20;;
22070;SDS011;11200;51.488;6.668;2023-07-20T21:05:14;1.95;;;1.20;;
22070;SDS011;11200;51.488;6.668;2023-07-20T21:07:39;1.40;;;1.30;;
22070;SDS011;11200;51.488;6.668;2023-07-20T21:10:06;1.40;;;1.30;;
22070;SDS011;11200;51.488;6.668;2023-07-20T21:12:32;1.30;;;1.20;;
22070;SDS011;11200;51.488;6.668;2023-07-20T21:14:57;1.20;;;1.10;;
22070;SDS011;11200;51.488;6.668;2023-07-20T21:17:25;1.83;;;1.10;;
22070;SDS011;11200;51.488;6.668;2023-07-20T21:19:52;1.27;;;1.17;;
22070;SDS011;11200;51.488;6.668;2023-07-20T21:22:18;1.30;;;1.20;;
22070;SDS011;11200;51.488;6.668;2023-07-20T21:24:44;1.73;;;1.20;;
22070;SDS011;11200;51.488;6.668;2023-07-20T21:27:10;1.50;;;1.15;;
22070;SDS011;11200;51.488;6.668;2023-07-20T21:29:35;2.53;;;1.50;;
22070;SDS011;11200;51.488;6.668;2023-07-20T21:32:01;1.52;;;1.42;;
22070;SDS011;11200;51.488;6.668;2023-07-20T21:34:26;1.30;;;1.20;;
22070;SDS011;11200;51.488;6.668;2023-07-20T21:36:52;1.40;;;1.30;;
22070;SDS011;11200;51.488;6.668;2023-07-20T21:39:17;2.45;;;1.52;;
22070;SDS011;11200;51.488;6.668;2023-07-20T21:41:44;1.45;;;1.20;;
22070;SDS011;11200;51.488;6.668;2023-07-20T21:44:09;1.48;;;1.38;;
22070;SDS011;11200;51.488;6.668;2023-07-20T21:46:35;1.45;;;1.35;;
22070;SDS011;11200;51.488;6.668;2023-07-20T21:49:01;1.30;;;1.20;;
22070;SDS011;11200;51.488;6.668;2023-07-20T21:51:28;1.35;;;1.20;;
22070;SDS011;11200;51.488;6.668;2023-07-20T21:53:55;1.30;;;1.20;;
22070;SDS011;11200;51.488;6.668;2023-07-20T21:56:21;1.48;;;1.38;;
22070;SDS011;11200;51.488;6.668;2023-07-20T21:58:46;1.83;;;1.30;;
22070;SDS011;11200;51.488;6.668;2023-07-20T22:01:12;1.38;;;1.27;;
22070;SDS011;11200;51.488;6.668;2023-07-20T22:03:38;1.50;;;1.40;;
22070;SDS011;11200;51.488;6.668;2023-07-20T22:06:03;1.50;;;1.40;;
22070;SDS011;11200;51.488;6.668;2023-07-20T22:08:29;1.92;;;1.23;;
22070;SDS011;11200;51.488;6.668;2023-07-20T22:10:55;1.50;;;1.40;;
22070;SDS011;11200;51.488;6.668;2023-07-20T22:13:21;1.40;;;1.30;;
22070;SDS011;11200;51.488;6.668;2023-07-20T22:15:47;1.30;;;1.20;;
22070;SDS011;11200;51.488;6.668;2023-07-20T22:18:15;1.48;;;1.33;;
22070;SDS011;11200;51.488;6.668;2023-07-20T22:20:41;1.17;;;1.10;;
22070;SDS011;11200;51.488;6.668;2023-07-20T22:23:06;1.35;;;1.25;;
22070;SDS011;11200;51.488;6.668;2023-07-20T22:25:32;1.50;;;1.40;;
22070;SDS011;11200;51.488;6.668;2023-07-20T22:27:58;1.27;;;1.17;;
22070;SDS011;11200;51.488;6.668;2023-07-20T22:30:23;1.48;;;1.38;;
22070;SDS011;11200;51.488;6.668;2023-07-20T22:32:49;1.20;;;1.10;;
22070;SDS011;11200;51.488;6.668;2023-07-20T22:35:14;1.33;;;1.23;;
22070;SDS011;11200;51.488;6.668;2023-07-20T22:37:40;1.40;;;1.30;;
22070;SDS011;11200;51.488;6.668;2023-07-20T22:40:06;1.25;;;1.15;;
22070;SDS011;11200;51.488;6.668;2023-07-20T22:42:35;1.10;;;1.10;;
22070;SDS011;11200;51.488;6.668;2023-07-20T22:45:02;1.13;;;1.13;;
22070;SDS011;11200;51.488;6.668;2023-07-20T22:47:31;1.45;;;1.35;;
22070;SDS011;11200;51.488;6.668;2023-07-20T22:50:03;1.15;;;1.02;;
22070;SDS011;11200;51.488;6.668;2023-07-20T22:52:29;1.40;;;1.30;;
22070;SDS011;11200;51.488;6.668;2023-07-20T22:54:57;2.00;;;1.30;;
22070;SDS011;11200;51.488;6.668;2023-07-20T22:57:22;1.30;;;1.20;;
22070;SDS011;11200;51.488;6.668;2023-07-20T22:59:48;1.42;;;1.33;;
22070;SDS011;11200;51.488;6.668;2023-07-20T23:02:15;1.45;;;1.35;;
22070;SDS011;11200;51.488;6.668;2023-07-20T23:04:41;1.33;;;1.23;;
22070;SDS011;11200;51.488;6.668;2023-07-20T23:07:07;1.80;;;1.33;;
22070;SDS011;11200;51.488;6.668;2023-07-20T23:09:33;1.40;;;1.30;;
22070;SDS011;11200;51.488;6.668;2023-07-20T23:11:58;2.63;;;1.48;;
22070;SDS011;11200;51.488;6.668;2023-07-20T23:14:29;1.45;;;1.35;;
22070;SDS011;11200;51.488;6.668;2023-07-20T23:16:55;1.52;;;1.42;;
22070;SDS011;11200;51.488;6.668;2023-07-20T23:19:21;1.85;;;1.30;;
22070;SDS011;11200;51.488;6.668;2023-07-20T23:21:47;1.55;;;1.25;;
22070;SDS011;11200;51.488;6.668;2023-07-20T23:24:13;1.38;;;1.27;;
22070;SDS011;11200;51.488;6.668;2023-07-20T23:26:39;1.40;;;1.30;;
22070;SDS011;11200;51.488;6.668;2023-07-20T23:29:06;1.45;;;1.35;;
22070;SDS011;11200;51.488;6.668;2023-07-20T23:31:33;1.45;;;1.30;;
22070;SDS011;11200;51.488;6.668;2023-07-20T23:34:01;1.45;;;1.35;;
22070;SDS011;11200;51.488;6.668;2023-07-20T23:36:27;1.52;;;1.25;;
22070;SDS011;11200;51.488;6.668;2023-07-20T23:38:53;1.42;;;1.33;;
22070;SDS011;11200;51.488;6.668;2023-07-20T23:41:19;1.50;;;1.40;;
22070;SDS011;11200;51.488;6.668;2023-07-20T23:43:45;1.60;;;1.42;;
22070;SDS011;11200;51.488;6.668;2023-07-20T23:46:11;1.30;;;1.20;;
22070;SDS011;11200;51.488;6.668;2023-07-20T23:48:45;2.58;;;1.50;;
22070;SDS011;11200;51.488;6.668;2023-07-20T23:51:11;1.45;;;1.35;;
22070;SDS011;11200;51.488;6.668;2023-07-20T23:53:44;1.80;;;1.70;;
22070;SDS011;11200;51.488;6.668;2023-07-20T23:56:14;1.50;;;1.40;;
22070;SDS011;11200;51.488;6.668;2023-07-20T23:58:40;1.60;;;1.40;;
